Time;durP1;ratioP1;P1;durP2;ratioP2;P2;SDS_P1;SDS_P2;PMS_P1;PMS_P2;Temp;Humidity;BMP_temperature;BMP_pressure;BME280_temperature;BME280_humidity;BME280_pressure;Samples;Min_cycle;Max_cycle;Signal;HPM_P1;HPM_P2
2020/12/02 00:00:25;;;;;;;43.88;23.15;;;0.40;2048.00;;;;;;5115580;28;20035;-70
2020/12/02 00:02:59;;;;;;;23.08;11.95;;;0.40;2048.00;;;;;;5115435;28;20361;-71
2020/12/02 00:05:26;;;;;;;20.67;11.02;;;0.50;2022.40;;;;;;5115367;28;20023;-71
2020/12/02 00:08:08;;;;;;;20.52;10.10;;;0.50;2022.40;;;;;;5115311;28;20348;-70
2020/12/02 00:10:34;;;;;;;22.42;9.35;;;0.50;2022.40;;;;;;5116505;28;20024;-71
2020/12/02 00:13:01;;;;;;;22.08;10.88;;;0.30;2048.00;;;;;;5107422;28;20027;-70
2020/12/02 00:15:27;;;;;;;16.80;8.50;;;0.30;2048.00;;;;;;5106759;28;20020;-71
2020/12/02 00:17:56;;;;;;;16.23;8.68;;;0.30;2048.00;;;;;;5105188;28;20024;-72
2020/12/02 00:20:23;;;;;;;33.55;17.92;;;0.40;2048.00;;;;;;5105690;28;20120;-70
2020/12/02 00:22:49;;;;;;;29.83;14.30;;;0.40;2048.00;;;;;;5104608;28;20079;-70
2020/12/02 00:25:15;;;;;;;31.77;16.58;;;0.40;2048.00;;;;;;5105549;28;20065;-70
2020/12/02 00:27:42;;;;;;;33.15;17.98;;;0.30;2048.00;;;;;;5106593;28;20031;-71
2020/12/02 00:30:12;;;;;;;27.25;16.10;;;0.20;2048.00;;;;;;5104794;28;20028;-70
2020/12/02 00:32:42;;;;;;;26.17;13.77;;;0.00;2099.20;;;;;;5105143;28;20039;-70
2020/12/02 00:35:14;;;;;;;25.50;14.93;;;0.10;2073.60;;;;;;5104715;28;20024;-73
2020/12/02 00:37:40;;;;;;;22.33;13.20;;;0.20;2073.60;;;;;;5104118;28;20019;-69
2020/12/02 00:40:07;;;;;;;25.67;13.23;;;0.10;2073.60;;;;;;5110034;28;20649;-70
2020/12/02 00:42:32;;;;;;;20.20;10.63;;;0.30;2048.00;;;;;;5115722;28;20031;-71
2020/12/02 00:44:58;;;;;;;19.90;9.80;;;0.20;2048.00;;;;;;5115304;28;20032;-73
2020/12/02 00:47:25;;;;;;;24.58;13.00;;;0.20;2073.60;;;;;;5116356;28;20134;-70
2020/12/02 00:49:55;;;;;;;19.08;10.75;;;0.30;2048.00;;;;;;5115972;28;20413;-70
2020/12/02 00:52:21;;;;;;;22.70;10.70;;;0.30;2048.00;;;;;;5115682;28;20036;-69
2020/12/02 00:54:47;;;;;;;20.80;10.32;;;0.30;2048.00;;;;;;5116355;28;20055;-70
2020/12/02 00:57:22;;;;;;;20.23;9.50;;;0.30;2073.60;;;;;;5115479;28;20421;-69
2020/12/02 00:59:54;;;;;;;21.60;12.23;;;0.30;2073.60;;;;;;5115510;28;20031;-69
2020/12/02 01:02:23;;;;;;;24.08;11.77;;;0.10;2073.60;;;;;;5115562;28;20429;-71
2020/12/02 01:04:50;;;;;;;22.88;11.93;;;0.20;2073.60;;;;;;5115844;28;20401;-72
2020/12/02 01:07:16;;;;;;;22.10;11.27;;;0.30;2073.60;;;;;;5115671;28;20035;-73
2020/12/02 01:09:42;;;;;;;19.35;9.88;;;0.30;2073.60;;;;;;5115411;28;20076;-70
2020/12/02 01:12:15;;;;;;;19.70;10.63;;;0.20;2073.60;;;;;;5116009;28;20088;-71
2020/12/02 01:14:43;;;;;;;21.92;11.00;;;0.30;2048.00;;;;;;5115970;28;20028;-70
2020/12/02 01:17:10;;;;;;;22.85;10.35;;;0.30;2048.00;;;;;;5115870;28;20055;-71
2020/12/02 01:19:38;;;;;;;22.17;11.07;;;0.40;2048.00;;;;;;5115254;28;20058;-69
2020/12/02 01:22:25;;;;;;;17.80;9.50;;;0.50;2048.00;;;;;;5115899;28;20062;-71
2020/12/02 01:25:12;;;;;;;20.40;10.38;;;0.50;2048.00;;;;;;5115575;28;20032;-70
2020/12/02 01:27:41;;;;;;;20.02;9.48;;;0.40;2048.00;;;;;;5115420;28;20110;-71
2020/12/02 01:30:12;;;;;;;18.60;8.95;;;0.30;2073.60;;;;;;5114813;28;20023;-69
2020/12/02 01:32:40;;;;;;;19.10;8.93;;;0.40;2048.00;;;;;;5115534;28;20039;-69
2020/12/02 01:35:06;;;;;;;20.92;9.40;;;0.30;2073.60;;;;;;5115533;28;20026;-69
2020/12/02 01:37:37;;;;;;;19.48;10.27;;;0.30;2073.60;;;;;;5114889;28;20032;-70
2020/12/02 01:40:26;;;;;;;20.70;10.95;;;0.50;2048.00;;;;;;5115750;28;20037;-70
2020/12/02 01:42:55;;;;;;;19.27;9.73;;;0.40;2048.00;;;;;;5115695;28;20313;-70
2020/12/02 01:45:23;;;;;;;20.17;10.35;;;0.10;2099.20;;;;;;5115478;28;20413;-67
2020/12/02 01:47:55;;;;;;;20.92;11.70;;;0.20;2073.60;;;;;;5114870;28;20592;-69
2020/12/02 01:50:50;;;;;;;23.08;11.32;;;0.40;2073.60;;;;;;5115240;28;20036;-67
2020/12/02 01:53:25;;;;;;;21.50;10.43;;;0.30;2073.60;;;;;;5115565;28;20038;-69
2020/12/02 01:56:00;;;;;;;19.02;10.25;;;0.30;2048.00;;;;;;5117373;28;20036;-67
2020/12/02 01:58:57;;;;;;;23.02;11.48;;;0.30;2073.60;;;;;;5119426;28;20616;-69
2020/12/02 02:01:48;;;;;;;20.90;11.45;;;0.30;2073.60;;;;;;5118986;28;20019;-68
2020/12/02 02:04:18;;;;;;;28.17;12.95;;;0.30;2073.60;;;;;;5119459;28;20074;-71
2020/12/02 02:07:03;;;;;;;21.25;10.18;;;0.30;2073.60;;;;;;5119189;28;20023;-68
2020/12/02 02:09:29;;;;;;;24.55;12.25;;;0.20;2073.60;;;;;;5119211;28;20028;-67
2020/12/02 02:12:13;;;;;;;22.77;10.98;;;0.40;2048.00;;;;;;5119419;28;20417;-67
2020/12/02 02:14:49;;;;;;;23.52;10.93;;;0.40;2048.00;;;;;;5118865;28;20082;-68
2020/12/02 02:17:15;;;;;;;20.63;10.98;;;0.40;2048.00;;;;;;5118998;28;20023;-68
2020/12/02 02:19:41;;;;;;;23.17;11.07;;;0.30;2073.60;;;;;;5119219;28;20058;-69
2020/12/02 02:22:06;;;;;;;22.33;10.45;;;0.40;2048.00;;;;;;5118857;28;20055;-66
2020/12/02 02:24:32;;;;;;;22.13;10.73;;;0.50;2048.00;;;;;;5118252;28;20046;-68
2020/12/02 02:26:58;;;;;;;25.35;11.68;;;0.40;2073.60;;;;;;5118533;28;20389;-68
2020/12/02 02:29:32;;;;;;;23.10;12.23;;;0.40;2073.60;;;;;;5118595;28;20329;-67
2020/12/02 02:32:13;;;;;;;22.63;10.77;;;0.50;2048.00;;;;;;5118468;28;20326;-67
2020/12/02 02:34:45;;;;;;;22.30;11.23;;;0.40;2048.00;;;;;;5119046;28;20034;-70
2020/12/02 02:37:13;;;;;;;24.27;10.98;;;0.30;2073.60;;;;;;5118326;28;20034;-69
2020/12/02 02:39:40;;;;;;;20.08;10.38;;;0.30;2073.60;;;;;;5118378;28;20429;-67
2020/12/02 02:42:28;;;;;;;20.25;10.15;;;0.30;2073.60;;;;;;5118331;28;20111;-69
2020/12/02 02:44:55;;;;;;;30.05;12.25;;;0.40;2048.00;;;;;;5103659;28;20088;-68
2020/12/02 02:47:21;;;;;;;25.38;11.38;;;0.30;2073.60;;;;;;5118416;28;20155;-69
2020/12/02 02:49:47;;;;;;;23.50;11.18;;;0.10;2099.20;;;;;;5117619;28;20023;-68
2020/12/02 02:52:13;;;;;;;25.63;11.45;;;0.20;2073.60;;;;;;5117875;28;20353;-67
2020/12/02 02:54:39;;;;;;;26.40;12.15;;;0.10;2099.20;;;;;;5118245;28;20037;-68
2020/12/02 02:57:05;;;;;;;26.90;12.55;;;0.20;2099.20;;;;;;5118382;28;20409;-69
2020/12/02 02:59:31;;;;;;;26.33;11.68;;;0.30;2099.20;;;;;;5117987;28;20656;-67
2020/12/02 03:01:56;;;;;;;23.90;11.60;;;0.30;2073.60;;;;;;5118026;28;20019;-69
2020/12/02 03:04:22;;;;;;;24.98;12.07;;;0.40;2073.60;;;;;;5117694;28;20425;-68
2020/12/02 03:06:49;;;;;;;25.85;11.57;;;0.40;2048.00;;;;;;5117018;28;20027;-68
2020/12/02 03:09:15;;;;;;;30.20;15.20;;;0.30;2073.60;;;;;;5118261;28;20099;-67
2020/12/02 03:11:41;;;;;;;21.52;11.35;;;0.30;2073.60;;;;;;5117534;28;20119;-69
2020/12/02 03:14:10;;;;;;;23.73;11.85;;;0.40;2073.60;;;;;;5118070;28;20028;-66
2020/12/02 03:16:50;;;;;;;27.45;12.73;;;0.50;2048.00;;;;;;5117917;28;20031;-70
2020/12/02 03:19:30;;;;;;;24.23;12.77;;;0.60;2022.40;;;;;;5117728;28;20376;-69
2020/12/02 03:22:00;;;;;;;25.02;12.63;;;0.50;2048.00;;;;;;5118125;28;20039;-67
2020/12/02 03:24:27;;;;;;;22.83;11.68;;;0.60;2048.00;;;;;;5117654;28;20030;-70
2020/12/02 03:26:52;;;;;;;28.02;13.38;;;0.70;2048.00;;;;;;5117527;28;20027;-68
2020/12/02 03:29:19;;;;;;;26.77;13.07;;;0.70;2048.00;;;;;;5117631;28;20038;-69
2020/12/02 03:31:46;;;;;;;27.35;12.98;;;0.60;2048.00;;;;;;5117925;28;20092;-69
2020/12/02 03:34:15;;;;;;;23.98;12.15;;;0.70;2022.40;;;;;;5117635;28;20084;-70
2020/12/02 03:36:41;;;;;;;25.25;12.40;;;0.70;2022.40;;;;;;5117055;28;20106;-67
2020/12/02 03:39:11;;;;;;;31.67;12.07;;;0.70;2022.40;;;;;;5117283;28;20031;-70
2020/12/02 03:41:38;;;;;;;25.48;12.05;;;0.70;2022.40;;;;;;5117415;28;20033;-69
2020/12/02 03:44:04;;;;;;;26.67;12.73;;;0.80;2022.40;;;;;;5116666;28;20024;-68
2020/12/02 03:46:31;;;;;;;26.38;12.23;;;0.80;2022.40;;;;;;5117229;28;20441;-69
2020/12/02 03:48:57;;;;;;;21.88;11.43;;;0.90;2022.40;;;;;;5116779;28;20019;-67
2020/12/02 03:51:24;;;;;;;30.17;13.55;;;0.90;2022.40;;;;;;5117241;28;20038;-68
2020/12/02 03:53:49;;;;;;;26.77;11.38;;;25.60;1996.80;;;;;;5117025;28;20027;-67
2020/12/02 03:56:15;;;;;;;26.92;12.20;;;25.60;2022.40;;;;;;5117157;28;20521;-68
2020/12/02 03:58:42;;;;;;;24.42;12.07;;;25.70;2022.40;;;;;;5116815;28;20076;-66
2020/12/02 04:01:08;;;;;;;23.58;12.85;;;25.70;1996.80;;;;;;5116409;28;20066;-69
2020/12/02 04:03:37;;;;;;;28.08;12.75;;;25.70;2022.40;;;;;;5116899;28;20063;-69
2020/12/02 04:06:04;;;;;;;25.92;12.50;;;25.60;2022.40;;;;;;5116679;28;20433;-68
2020/12/02 04:08:31;;;;;;;26.95;12.18;;;0.90;2048.00;;;;;;5114642;28;20019;-68
2020/12/02 04:10:57;;;;;;;27.27;12.45;;;25.60;2022.40;;;;;;5119329;28;20035;-69
2020/12/02 04:13:23;;;;;;;27.75;12.43;;;0.80;2048.00;;;;;;5118832;28;20024;-69
2020/12/02 04:15:49;;;;;;;29.20;13.75;;;0.80;2048.00;;;;;;5118831;28;20034;-67
2020/12/02 04:18:14;;;;;;;24.63;11.57;;;25.70;2048.00;;;;;;5119003;28;20030;-70
2020/12/02 04:20:41;;;;;;;32.13;12.45;;;0.90;2073.60;;;;;;5118957;28;20024;-69
2020/12/02 04:23:06;;;;;;;32.83;13.18;;;0.90;2073.60;;;;;;5098465;28;20036;-69
2020/12/02 04:25:32;;;;;;;30.73;12.90;;;25.60;2048.00;;;;;;5098358;28;20081;-67
2020/12/02 04:27:58;;;;;;;25.30;12.85;;;25.60;2048.00;;;;;;5098389;28;20030;-67
2020/12/02 04:30:24;;;;;;;30.95;15.80;;;26.00;2022.40;;;;;;5097603;28;20020;-66
2020/12/02 04:32:50;;;;;;;50.28;25.80;;;25.80;2022.40;;;;;;5097914;28;20030;-68
2020/12/02 04:35:19;;;;;;;51.88;29.70;;;25.90;1996.80;;;;;;5098356;28;20111;-69
2020/12/02 04:37:44;;;;;;;43.35;22.65;;;26.10;1971.20;;;;;;5097897;28;20337;-68
2020/12/02 04:40:33;;;;;;;22.30;11.93;;;26.30;1945.60;;;;;;5097824;28;20032;-68
2020/12/02 04:43:08;;;;;;;22.95;10.60;;;26.50;1920.00;;;;;;5097096;28;20421;-68
2020/12/02 04:45:34;;;;;;;22.67;11.50;;;26.50;1920.00;;;;;;5098301;28;20024;-69
2020/12/02 04:48:05;;;;;;;23.90;10.25;;;26.50;1945.60;;;;;;5098125;28;20148;-69
2020/12/02 04:50:31;;;;;;;20.02;10.05;;;26.40;1894.40;;;;;;5097932;28;20024;-69
2020/12/02 04:53:23;;;;;;;21.33;10.45;;;26.50;1894.40;;;;;;5098221;28;20047;-67
2020/12/02 04:55:53;;;;;;;19.35;9.70;;;26.20;1894.40;;;;;;5098272;28;20020;-69
2020/12/02 04:58:31;;;;;;;78.32;46.53;;;26.30;1920.00;;;;;;5097990;28;20020;-70
2020/12/02 05:01:18;;;;;;;86.10;47.40;;;26.10;1920.00;;;;;;5098084;28;20020;-68
2020/12/02 05:04:14;;;;;;;76.10;43.53;;;26.30;1894.40;;;;;;5097841;28;20324;-69
2020/12/02 05:07:14;;;;;;;65.95;39.00;;;26.30;1894.40;;;;;;5098016;28;20023;-67
2020/12/02 05:10:06;;;;;;;69.68;35.88;;;26.30;1920.00;;;;;;5015339;28;20080;-68
2020/12/02 05:12:40;;;;;;;51.97;28.40;;;26.10;1920.00;;;;;;5015581;28;20034;-68
2020/12/02 05:15:13;;;;;;;45.92;24.27;;;26.40;1894.40;;;;;;5015624;28;20026;-70
2020/12/02 05:17:38;;;;;;;121.55;48.25;;;26.20;1894.40;;;;;;5015227;28;20029;-68
2020/12/02 05:20:20;;;;;;;142.20;66.53;;;26.10;1894.40;;;;;;5015571;28;20125;-71
2020/12/02 05:22:50;;;;;;;93.18;41.65;;;26.10;1894.40;;;;;;4998211;28;20069;-69
2020/12/02 05:25:21;;;;;;;53.38;26.58;;;25.90;1920.00;;;;;;4995737;28;20034;-68
2020/12/02 05:28:02;;;;;;;55.55;27.80;;;25.70;1945.60;;;;;;4995904;28;20034;-68
2020/12/02 05:30:32;;;;;;;144.02;56.70;;;25.60;1971.20;;;;;;4995091;28;20034;-68
2020/12/02 05:33:13;;;;;;;128.35;55.80;;;0.80;1971.20;;;;;;4995439;28;20042;-67
2020/12/02 05:36:09;;;;;;;92.38;48.03;;;0.80;1971.20;;;;;;4995694;28;20034;-68
2020/12/02 05:38:39;;;;;;;173.23;93.63;;;0.60;1971.20;;;;;;4995174;28;20077;-68
2020/12/02 05:41:11;;;;;;;296.40;156.50;;;0.70;1971.20;;;;;;4995774;28;20036;-67
2020/12/02 05:43:52;;;;;;;75.85;43.38;;;0.70;1971.20;;;;;;4995667;28;20424;-67
2020/12/02 05:46:34;;;;;;;20.95;11.05;;;0.50;1996.80;;;;;;5071937;28;20075;-66
2020/12/02 05:49:06;;;;;;;29.65;17.33;;;0.40;1996.80;;;;;;5077020;28;20149;-69
2020/12/02 05:51:32;;;;;;;15.32;8.45;;;0.40;1996.80;;;;;;5077392;28;20021;-67
2020/12/02 05:54:04;;;;;;;40.78;24.88;;;0.10;2022.40;;;;;;5076820;28;20032;-68
2020/12/02 05:56:30;;;;;;;14.85;7.57;;;0.00;2048.00;;;;;;5077211;28;20028;-69
2020/12/02 05:58:56;;;;;;;21.48;11.23;;;13.00;2048.00;;;;;;5076649;28;20024;-67
2020/12/02 06:01:22;;;;;;;18.38;9.07;;;0.10;2048.00;;;;;;5076710;28;20029;-69
2020/12/02 06:03:54;;;;;;;21.38;10.40;;;0.20;2048.00;;;;;;5076744;28;20037;-69
2020/12/02 06:06:20;;;;;;;26.40;11.65;;;0.00;2048.00;;;;;;5076128;28;20338;-67
2020/12/02 06:08:50;;;;;;;28.15;16.98;;;0.20;2073.60;;;;;;5076926;28;20029;-67
2020/12/02 06:11:16;;;;;;;29.35;16.58;;;0.50;2048.00;;;;;;5077025;28;20012;-66
2020/12/02 06:13:49;;;;;;;23.00;10.48;;;0.80;2022.40;;;;;;5076053;28;20449;-67
2020/12/02 06:16:28;;;;;;;33.08;15.73;;;0.90;1996.80;;;;;;5076790;28;20024;-67
2020/12/02 06:18:54;;;;;;;29.50;19.58;;;25.90;1971.20;;;;;;5077065;28;20059;-68
2020/12/02 06:21:56;;;;;;;28.55;15.80;;;26.00;1945.60;;;;;;5087043;28;20421;-68
2020/12/02 06:24:44;;;;;;;38.92;19.38;;;26.10;1945.60;;;;;;5014533;28;20054;-69
2020/12/02 06:27:15;;;;;;;25.10;14.32;;;26.20;1945.60;;;;;;5014743;28;20038;-67
2020/12/02 06:29:47;;;;;;;33.10;19.67;;;26.00;1945.60;;;;;;5014958;28;20440;-68
2020/12/02 06:32:15;;;;;;;34.83;22.95;;;26.20;1945.60;;;;;;4997073;28;20039;-69
2020/12/02 06:34:41;;;;;;;21.92;11.13;;;26.20;1945.60;;;;;;4995126;28;20035;-68
2020/12/02 06:37:19;;;;;;;26.92;13.85;;;26.20;1945.60;;;;;;4999212;28;20049;-67
2020/12/02 06:39:59;;;;;;;26.27;14.43;;;26.50;1894.40;;;;;;5030449;28;20057;-68
2020/12/02 06:42:35;;;;;;;27.23;13.23;;;51.20;1920.00;;;;;;5033453;28;20052;-68
2020/12/02 06:45:49;;;;;;;57.70;32.63;;;26.40;1894.40;;;;;;5036287;28;20083;-68
2020/12/02 06:48:38;;;;;;;34.63;17.30;;;26.40;1920.00;;;;;;5031838;28;20073;-71
2020/12/02 06:51:14;;;;;;;23.48;11.90;;;51.30;1920.00;;;;;;5035028;28;20072;-70
2020/12/02 06:53:40;;;;;;;19.33;10.80;;;51.60;1894.40;;;;;;5036257;28;20112;-69
2020/12/02 06:56:06;;;;;;;20.00;10.50;;;51.50;1894.40;;;;;;5026962;28;20520;-68
2020/12/02 06:58:32;;;;;;;22.52;11.50;;;51.80;1868.80;;;;;;5071912;28;20114;-69
2020/12/02 07:01:02;;;;;;;19.63;10.93;;;52.00;1868.80;;;;;;5115019;27;20028;-70
2020/12/02 07:03:32;;;;;;;26.48;14.43;;;76.80;1868.80;;;;;;5110865;28;20480;-68
2020/12/02 07:06:19;;;;;;;24.48;11.07;;;77.00;1817.60;;;;;;5107940;28;20675;-72
2020/12/02 07:08:48;;;;;;;17.30;9.45;;;77.10;1792.00;;;;;;5111211;28;20047;-67
2020/12/02 07:11:22;;;;;;;29.50;13.88;;;76.90;1817.60;;;;;;5119737;28;20077;-67
2020/12/02 07:13:50;;;;;;;21.35;11.00;;;76.90;1817.60;;;;;;5120202;28;20034;-69
2020/12/02 07:16:23;;;;;;;21.93;11.37;;;76.90;1817.60;;;;;;5120200;28;20024;-69
2020/12/02 07:18:59;;;;;;;26.50;12.90;;;76.80;1843.20;;;;;;5109567;28;20347;-70
2020/12/02 07:21:51;;;;;;;27.70;13.55;;;76.80;1817.60;;;;;;5114124;27;20055;-69
2020/12/02 07:24:24;;;;;;;27.27;12.32;;;52.10;1868.80;;;;;;5140056;27;20054;-68
2020/12/02 07:26:51;;;;;;;18.98;9.75;;;52.10;1868.80;;;;;;5112577;27;20417;-71
2020/12/02 07:29:20;;;;;;;28.08;16.45;;;52.10;1868.80;;;;;;5113800;28;20100;-68
2020/12/02 07:31:46;;;;;;;22.45;11.43;;;77.10;1843.20;;;;;;5118737;28;20036;-68
2020/12/02 07:34:13;;;;;;;20.40;10.88;;;77.40;1792.00;;;;;;5112701;28;20090;-70
2020/12/02 07:36:39;;;;;;;16.90;9.70;;;77.40;1766.40;;;;;;5115937;27;20025;-67
2020/12/02 07:39:18;;;;;;;22.00;11.55;;;77.10;1817.60;;;;;;5118656;27;20033;-67
2020/12/02 07:41:45;;;;;;;29.77;15.57;;;77.00;1843.20;;;;;;5116185;27;20034;-68
2020/12/02 07:44:11;;;;;;;34.70;19.85;;;77.30;1817.60;;;;;;5139709;27;20689;-69
2020/12/02 07:46:37;;;;;;;35.40;19.85;;;77.50;1792.00;;;;;;5124117;27;20336;-69
2020/12/02 07:49:05;;;;;;;31.88;17.48;;;102.40;1740.80;;;;;;5117926;28;20020;-69
2020/12/02 07:51:39;;;;;;;26.13;14.05;;;102.60;1740.80;;;;;;5119102;28;20055;-71
2020/12/02 07:54:14;;;;;;;20.30;11.52;;;102.40;1766.40;;;;;;5117706;28;20028;-71
2020/12/02 07:56:41;;;;;;;24.00;12.88;;;102.60;1740.80;;;;;;5119001;28;20317;-71
2020/12/02 07:59:26;;;;;;;22.45;12.52;;;102.70;1740.80;;;;;;5118451;28;20031;-71
2020/12/02 08:01:58;;;;;;;18.75;10.27;;;77.50;1792.00;;;;;;5118860;28;20110;-70
2020/12/02 08:04:23;;;;;;;19.95;10.85;;;77.60;1792.00;;;;;;5126072;27;20070;-69
2020/12/02 08:06:58;;;;;;;20.10;10.10;;;77.60;1766.40;;;;;;5136078;27;20047;-70
2020/12/02 08:09:24;;;;;;;28.65;14.38;;;77.40;1792.00;;;;;;5139269;27;20023;-69
2020/12/02 08:12:02;;;;;;;26.98;13.90;;;77.30;1817.60;;;;;;5138609;27;20106;-69
2020/12/02 08:14:43;;;;;;;25.83;14.70;;;52.00;1894.40;;;;;;5139684;27;20034;-68
2020/12/02 08:17:24;;;;;;;28.08;13.60;;;76.80;1894.40;;;;;;5138897;27;20035;-68
2020/12/02 08:19:58;;;;;;;24.30;12.68;;;52.10;1894.40;;;;;;5139518;27;20030;-72
2020/12/02 08:22:47;;;;;;;22.00;11.48;;;77.00;1868.80;;;;;;5138803;27;20062;-69
2020/12/02 08:25:26;;;;;;;34.17;13.13;;;52.10;1894.40;;;;;;5138940;27;20031;-70
2020/12/02 08:27:57;;;;;;;32.67;13.13;;;52.00;1894.40;;;;;;5139337;27;20409;-68
2020/12/02 08:30:26;;;;;;;27.17;12.18;;;76.80;1894.40;;;;;;5138949;27;20023;-70
2020/12/02 08:33:06;;;;;;;24.70;11.80;;;52.00;1920.00;;;;;;5138984;27;20022;-70
2020/12/02 08:35:44;;;;;;;39.55;13.52;;;76.80;1894.40;;;;;;5139326;27;20118;-72
2020/12/02 08:38:28;;;;;;;32.27;13.53;;;77.00;1868.80;;;;;;5138023;27;20043;-70
2020/12/02 08:40:56;;;;;;;40.13;19.52;;;77.20;1868.80;;;;;;5138600;27;20763;-68
2020/12/02 08:43:30;;;;;;;32.88;19.30;;;77.40;1843.20;;;;;;5138576;27;20030;-70
2020/12/02 08:45:59;;;;;;;26.42;12.98;;;77.60;1817.60;;;;;;5138788;27;20050;-71
2020/12/02 08:48:25;;;;;;;20.42;11.63;;;102.40;1792.00;;;;;;5138036;27;20060;-70
2020/12/02 08:50:50;;;;;;;18.48;9.88;;;102.40;1792.00;;;;;;5138838;27;20027;-70
2020/12/02 08:53:28;;;;;;;18.05;10.65;;;102.50;1792.00;;;;;;5138193;27;20096;-68
2020/12/02 08:55:56;;;;;;;22.95;11.27;;;102.60;1766.40;;;;;;5138192;27;20023;-69
2020/12/02 08:58:22;;;;;;;22.33;12.35;;;102.80;1766.40;;;;;;5124271;27;20077;-67
2020/12/02 09:00:48;;;;;;;17.98;9.63;;;102.90;1740.80;;;;;;5117688;28;20460;-67
2020/12/02 09:03:15;;;;;;;19.35;11.68;;;102.90;1740.80;;;;;;5116673;28;20055;-68
2020/12/02 09:05:40;;;;;;;17.67;11.05;;;103.00;1740.80;;;;;;5116903;28;20023;-66
2020/12/02 09:08:06;;;;;;;17.63;10.15;;;102.90;1740.80;;;;;;5118072;28;20023;-70
2020/12/02 09:10:32;;;;;;;21.60;11.73;;;103.10;1715.20;;;;;;5117879;28;20424;-68
2020/12/02 09:12:59;;;;;;;24.38;10.25;;;103.20;1715.20;;;;;;5117819;28;20035;-71
2020/12/02 09:15:27;;;;;;;24.15;13.50;;;103.20;1715.20;;;;;;5117293;28;20068;-68
2020/12/02 09:17:56;;;;;;;29.90;15.77;;;102.80;1715.20;;;;;;5117628;28;20466;-69
2020/12/02 09:20:23;;;;;;;29.52;15.40;;;102.80;1740.80;;;;;;5117261;28;20023;-69
2020/12/02 09:22:49;;;;;;;26.45;15.35;;;102.80;1740.80;;;;;;5116769;28;20048;-68
2020/12/02 09:25:17;;;;;;;34.38;12.70;;;102.90;1715.20;;;;;;5117630;28;20047;-71
2020/12/02 09:27:43;;;;;;;33.15;15.60;;;102.80;1715.20;;;;;;5117761;28;20110;-66
2020/12/02 09:30:10;;;;;;;24.05;13.25;;;102.80;1740.80;;;;;;5126005;27;20011;-72
2020/12/02 09:32:36;;;;;;;26.75;15.00;;;102.90;1740.80;;;;;;5136980;27;20051;-71
2020/12/02 09:35:05;;;;;;;27.65;16.42;;;102.90;1715.20;;;;;;5137857;27;20054;-67
2020/12/02 09:37:31;;;;;;;25.27;13.88;;;103.00;1715.20;;;;;;5138188;27;20023;-70
2020/12/02 09:39:57;;;;;;;23.98;13.38;;;102.90;1715.20;;;;;;5138231;28;20034;-68
2020/12/02 09:42:45;;;;;;;31.50;17.25;;;102.90;1715.20;;;;;;5138274;28;20101;-69
2020/12/02 09:45:34;;;;;;;28.38;13.90;;;103.00;1715.20;;;;;;5137308;28;20031;-68
2020/12/02 09:48:11;;;;;;;24.17;14.18;;;103.00;1715.20;;;;;;5137761;28;20400;-69
2020/12/02 09:50:36;;;;;;;26.73;14.80;;;103.00;1715.20;;;;;;5137649;28;20019;-70
2020/12/02 09:53:17;;;;;;;22.02;12.70;;;103.10;1715.20;;;;;;5137999;28;20035;-67
2020/12/02 09:55:43;;;;;;;48.20;14.55;;;103.00;1715.20;;;;;;5137661;28;20061;-67
2020/12/02 09:58:10;;;;;;;32.45;15.43;;;103.10;1715.20;;;;;;5137929;28;20046;-68
2020/12/02 10:00:36;;;;;;;28.70;13.55;;;103.20;1715.20;;;;;;5137730;28;20110;-68
2020/12/02 10:03:33;;;;;;;30.50;13.57;;;103.20;1689.60;;;;;;5137426;28;20118;-69
2020/12/02 10:06:11;;;;;;;30.27;16.25;;;103.30;1715.20;;;;;;5137746;28;20031;-70
2020/12/02 10:08:46;;;;;;;32.72;15.80;;;103.20;1715.20;;;;;;5138087;28;20023;-68
2020/12/02 10:11:24;;;;;;;28.58;16.55;;;128.00;1715.20;;;;;;5137423;28;20027;-68
2020/12/02 10:14:19;;;;;;;22.60;13.73;;;128.20;1715.20;;;;;;5136265;28;20026;-67
2020/12/02 10:17:14;;;;;;;31.63;15.55;;;128.40;1689.60;;;;;;5139784;27;20023;-68
2020/12/02 10:19:59;;;;;;;29.92;13.25;;;128.60;1664.00;;;;;;5141792;27;20027;-68
2020/12/02 10:22:33;;;;;;;25.58;14.02;;;128.70;1638.40;;;;;;5141327;27;20063;-66
2020/12/02 10:25:02;;;;;;;24.80;13.30;;;128.90;1638.40;;;;;;5141734;27;20046;-66
2020/12/02 10:27:49;;;;;;;22.63;12.82;;;153.70;1612.80;;;;;;5141026;27;20025;-68
2020/12/02 10:30:20;;;;;;;24.70;12.75;;;153.80;1612.80;;;;;;5141499;27;20328;-69
2020/12/02 10:33:14;;;;;;;20.88;11.50;;;128.90;1638.40;;;;;;5141153;27;20019;-67
2020/12/02 10:35:43;;;;;;;28.63;14.73;;;128.90;1612.80;;;;;;5141706;27;20015;-68
2020/12/02 10:38:12;;;;;;;;;;;128.70;1638.40;;;;;;5141508;27;20023;-68
2020/12/02 10:40:50;;;;;;;31.23;16.83;;;128.90;1638.40;;;;;;5140529;27;19907;-71
2020/12/02 10:43:58;;;;;;;22.55;12.10;;;128.90;1612.80;;;;;;5141094;27;20031;-67
2020/12/02 10:46:34;;;;;;;;;;;153.80;1612.80;;;;;;5057927;28;20045;-67
2020/12/02 10:49:07;;;;;;;22.80;12.82;;;154.00;1587.20;;;;;;5057522;28;19954;-68
2020/12/02 10:51:36;;;;;;;24.63;13.90;;;154.20;1561.60;;;;;;5057565;28;20029;-68
2020/12/02 10:54:09;;;;;;;;;;;154.10;1561.60;;;;;;5057624;28;20029;-71
2020/12/02 10:56:35;;;;;;;22.42;11.85;;;154.10;1587.20;;;;;;5051913;28;19911;-68
2020/12/02 10:59:00;;;;;;;23.65;12.50;;;154.20;1561.60;;;;;;5057537;28;20028;-68
2020/12/02 11:01:27;;;;;;;39.05;14.57;;;154.30;1561.60;;;;;;5057277;28;20115;-69
2020/12/02 11:03:53;;;;;;;29.75;14.65;;;154.50;1536.00;;;;;;5057167;28;20051;-71
2020/12/02 11:06:39;;;;;;;30.85;13.77;;;179.40;1510.40;;;;;;5057466;28;20039;-69
2020/12/02 11:09:29;;;;;;;38.80;17.20;;;179.80;1484.80;;;;;;5056967;28;20393;-70
2020/12/02 11:12:14;;;;;;;34.28;17.20;;;180.00;1433.60;;;;;;5057244;28;20029;-68
2020/12/02 11:14:42;;;;;;;22.85;12.90;;;180.10;1433.60;;;;;;5057146;28;20029;-67
2020/12/02 11:17:20;;;;;;;21.77;10.85;;;180.10;1433.60;;;;;;5056896;28;20064;-69
2020/12/02 11:19:55;;;;;;;32.30;14.07;;;180.00;1433.60;;;;;;5057339;28;20028;-67
2020/12/02 11:22:39;;;;;;;24.85;11.90;;;180.00;1433.60;;;;;;5074499;28;20056;-68
2020/12/02 11:25:18;;;;;;;29.25;11.90;;;179.60;1484.80;;;;;;5099143;28;20480;-67
2020/12/02 11:27:45;;;;;;;36.05;12.15;;;205.10;1382.40;;;;;;5098618;28;20149;-68
2020/12/02 11:30:27;;;;;;;28.85;13.60;;;205.10;1382.40;;;;;;5099136;28;20092;-70
2020/12/02 11:33:24;;;;;;;26.30;14.82;;;205.10;1382.40;;;;;;5099072;28;20028;-70
2020/12/02 11:36:14;;;;;;;57.70;36.17;;;205.30;1356.80;;;;;;5099344;28;20024;-69
2020/12/02 11:38:54;;;;;;;26.98;14.43;;;230.50;1305.60;;;;;;5128992;27;20026;-68
2020/12/02 11:41:35;;;;;;;28.13;18.33;;;230.40;1331.20;;;;;;5140148;27;20023;-67
2020/12/02 11:44:21;;;;;;;41.00;27.45;;;230.70;1305.60;;;;;;5139899;27;20027;-69
2020/12/02 11:47:01;;;;;;;29.10;18.13;;;231.00;1280.00;;;;;;5140137;27;20118;-68
2020/12/02 11:49:35;;;;;;;70.85;46.58;;;256.00;1254.40;;;;;;5139741;27;20124;-68
2020/12/02 11:52:22;;;;;;;19.58;11.68;;;256.60;1203.20;;;;;;5140224;27;20024;-68
2020/12/02 11:54:54;;;;;;;42.42;26.85;;;256.70;1177.60;;;;;;5133430;27;20367;-67
2020/12/02 11:57:20;;;;;;;28.40;17.63;;;256.90;1177.60;;;;;;5114178;28;20085;-70
2020/12/02 11:59:46;;;;;;;35.78;22.17;;;281.90;1177.60;;;;;;5115261;28;20429;-70
2020/12/02 12:02:29;;;;;;;25.50;15.60;;;282.10;1152.00;;;;;;5124776;27;20034;-69
2020/12/02 12:05:18;;;;;;;21.55;11.82;;;282.20;1152.00;;;;;;5117605;27;20027;-67
2020/12/02 12:08:13;;;;;;;38.20;13.60;;;281.70;1177.60;;;;;;5111872;27;20027;-70
2020/12/02 12:10:49;;;;;;;25.80;11.73;;;281.80;1177.60;;;;;;5136520;27;20068;-69
2020/12/02 12:13:32;;;;;;;45.72;27.42;;;256.80;1152.00;;;;;;5126782;27;20413;-67
2020/12/02 12:16:17;;;;;;;23.45;12.57;;;282.10;1152.00;;;;;;5106713;28;20423;-71
2020/12/02 12:18:59;;;;;;;27.80;12.00;;;282.00;1152.00;;;;;;5114852;28;20109;-70
2020/12/02 12:21:48;;;;;;;43.47;26.85;;;282.10;1152.00;;;;;;5129566;27;20519;-69
2020/12/02 12:24:17;;;;;;;29.52;15.85;;;307.20;1152.00;;;;;;5133611;27;20023;-68
2020/12/02 12:26:49;;;;;;;21.88;12.80;;;307.20;1152.00;;;;;;5117811;27;20035;-68
2020/12/02 12:29:16;;;;;;;25.35;15.35;;;282.10;1126.40;;;;;;5101708;27;20027;-69
2020/12/02 12:31:56;;;;;;;27.40;15.85;;;282.50;1126.40;;;;;;5134568;27;20086;-69
2020/12/02 12:34:43;;;;;;;38.40;26.10;;;307.80;1100.80;;;;;;5135550;27;20034;-70
2020/12/02 12:37:39;;;;;;;33.38;22.67;;;332.90;1100.80;;;;;;5134391;27;20110;-70
2020/12/02 12:40:27;;;;;;;18.08;10.95;;;333.60;1049.60;;;;;;5133038;27;20105;-69